createdAt,value
2023-01-09T00:00:30.114Z,0.19
2023-01-09T00:03:51.562Z,0.25
2023-01-09T00:06:53.159Z,0.23
2023-01-09T00:09:54.770Z,0.22
2023-01-09T00:12:56.441Z,0.19
2023-01-09T00:15:58.761Z,0.23
2023-01-09T00:19:00.298Z,0.34
2023-01-09T00:22:01.981Z,0.35
2023-01-09T00:25:04.599Z,0.33
2023-01-09T00:28:06.343Z,0.34
2023-01-09T00:31:08.200Z,0.42
2023-01-09T00:34:10.199Z,0.48
2023-01-09T00:37:11.922Z,0.50
2023-01-09T00:40:14.891Z,0.52
2023-01-09T00:43:17.540Z,0.50
2023-01-09T00:46:21.906Z,0.46
2023-01-09T00:49:23.832Z,0.40
2023-01-09T00:52:25.389Z,0.36
2023-01-09T00:55:27.056Z,0.36
2023-01-09T00:58:28.792Z,0.36
2023-01-09T01:01:30.490Z,0.35
2023-01-09T01:04:32.365Z,0.33
2023-01-09T01:07:33.994Z,0.32
2023-01-09T01:10:35.906Z,0.31
2023-01-09T01:13:39.394Z,0.19
2023-01-09T01:16:41.046Z,0.16
2023-01-09T01:19:42.661Z,0.24
2023-01-09T01:22:44.558Z,0.18
2023-01-09T01:25:46.108Z,0.06
2023-01-09T01:28:47.755Z,0.14
2023-01-09T01:31:49.369Z,0.12
2023-01-09T01:34:51.053Z,0.02
2023-01-09T01:37:52.699Z,-0.14
2023-01-09T01:40:54.332Z,-0.31
2023-01-09T01:43:59.948Z,-0.40
2023-01-09T01:47:01.653Z,-0.49
2023-01-09T01:50:04.282Z,-0.60
2023-01-09T01:53:15.086Z,-0.68
2023-01-09T01:56:19.712Z,-0.80
2023-01-09T01:59:40.841Z,-0.98
2023-01-09T02:02:43.124Z,-1.02
2023-01-09T02:05:45.375Z,-1.07
2023-01-09T02:08:47.224Z,-1.06
2023-01-09T02:11:49.707Z,-1.07
2023-01-09T02:14:58.091Z,-1.07
2023-01-09T02:18:05.647Z,-1.07
2023-01-09T02:21:16.020Z,-1.10
2023-01-09T02:24:42.076Z,-1.11
2023-01-09T02:28:02.645Z,-1.14
2023-01-09T02:31:20.573Z,-1.13
2023-01-09T02:34:32.963Z,-1.11
2023-01-09T02:37:45.759Z,-1.09
2023-01-09T02:40:54.607Z,-1.08
2023-01-09T02:44:29.352Z,-1.08
2023-01-09T02:47:37.890Z,-1.07
2023-01-09T02:50:46.541Z,-1.06
2023-01-09T02:53:50.348Z,-1.09
2023-01-09T02:56:57.869Z,-1.14
2023-01-09T03:00:37.487Z,-1.16
2023-01-09T03:03:57.504Z,-1.15
2023-01-09T03:07:04.383Z,-1.10
2023-01-09T03:10:32.154Z,-1.11
2023-01-09T03:13:42.082Z,-1.27
2023-01-09T03:16:46.768Z,-1.40
2023-01-09T03:19:49.341Z,-1.48
2023-01-09T03:22:55.175Z,-1.51
2023-01-09T03:25:56.843Z,-1.53
2023-01-09T03:28:59.349Z,-1.57
2023-01-09T03:32:01.254Z,-1.62
2023-01-09T03:35:02.863Z,-1.67
2023-01-09T03:38:06.129Z,-1.74
2023-01-09T03:41:09.715Z,-1.75
2023-01-09T03:44:11.359Z,-1.76
2023-01-09T03:47:12.943Z,-1.74
2023-01-09T03:50:15.115Z,-1.70
2023-01-09T03:53:17.173Z,-1.67
2023-01-09T03:56:18.791Z,-1.65
2023-01-09T03:59:20.300Z,-1.64
2023-01-09T04:02:21.841Z,-1.63
2023-01-09T04:05:23.565Z,-1.59
2023-01-09T04:08:25.238Z,-1.53
2023-01-09T04:11:26.767Z,-1.46
2023-01-09T04:14:28.535Z,-1.42
2023-01-09T04:17:30.242Z,-1.42
2023-01-09T04:20:32.355Z,-1.44
2023-01-09T04:23:34.080Z,-1.46
2023-01-09T04:26:35.552Z,-1.45
2023-01-09T04:29:37.127Z,-1.44
2023-01-09T04:32:38.741Z,-1.40
2023-01-09T04:35:40.306Z,-1.36
2023-01-09T04:38:41.871Z,-1.33
2023-01-09T04:41:43.569Z,-1.28
2023-01-09T04:44:45.101Z,-1.25
2023-01-09T04:47:46.690Z,-1.27
2023-01-09T04:50:48.332Z,-1.26
2023-01-09T04:53:50.248Z,-1.25
2023-01-09T04:56:51.665Z,-1.24
2023-01-09T04:59:54.232Z,-1.30
2023-01-09T05:02:56.097Z,-1.34
2023-01-09T05:05:57.993Z,-1.38
2023-01-09T05:08:59.505Z,-1.55
2023-01-09T05:12:01.913Z,-1.80
2023-01-09T05:15:05.194Z,-2.04
2023-01-09T05:18:06.765Z,-2.03
2023-01-09T05:21:08.589Z,-1.95
2023-01-09T05:24:10.076Z,-1.96
2023-01-09T05:27:11.943Z,-1.85
2023-01-09T05:30:18.001Z,-1.71
2023-01-09T05:33:20.075Z,-1.70
2023-01-09T05:36:21.681Z,-1.73
2023-01-09T05:39:23.361Z,-1.86
2023-01-09T05:42:25.000Z,-2.06
2023-01-09T05:45:26.589Z,-2.15
2023-01-09T05:48:28.250Z,-2.18
2023-01-09T05:51:29.940Z,-2.05
2023-01-09T05:54:31.644Z,-1.78
2023-01-09T05:57:33.336Z,-1.82
2023-01-09T06:00:35.010Z,-1.86
2023-01-09T06:03:36.668Z,-1.80
2023-01-09T06:06:38.391Z,-1.70
2023-01-09T06:09:40.076Z,-1.58
2023-01-09T06:12:42.527Z,-1.58
2023-01-09T06:15:44.237Z,-1.52
2023-01-09T06:18:45.796Z,-1.47
2023-01-09T06:21:47.638Z,-1.42
2023-01-09T06:24:49.122Z,-1.38
2023-01-09T06:27:50.733Z,-1.31
2023-01-09T06:30:52.879Z,-1.23
2023-01-09T06:33:54.506Z,-1.17
2023-01-09T06:36:55.988Z,-1.06
2023-01-09T06:39:57.700Z,-0.96
2023-01-09T06:42:59.239Z,-0.87
2023-01-09T06:46:01.003Z,-0.80
2023-01-09T06:49:02.480Z,-0.75
2023-01-09T06:52:04.391Z,-0.70
2023-01-09T06:55:06.898Z,-0.63
2023-01-09T06:58:08.529Z,-0.56
2023-01-09T07:01:10.241Z,-0.49
2023-01-09T07:04:11.851Z,-0.42
2023-01-09T07:07:15.884Z,-0.36
2023-01-09T07:10:17.447Z,-0.28
2023-01-09T07:13:19.109Z,-0.20
2023-01-09T07:16:20.729Z,-0.13
2023-01-09T07:19:22.337Z,-0.04
2023-01-09T07:22:24.020Z,0.08
2023-01-09T07:25:25.657Z,0.16
2023-01-09T07:28:27.227Z,0.24
2023-01-09T07:31:29.471Z,0.32
2023-01-09T07:34:31.123Z,0.39
2023-01-09T07:37:32.757Z,0.46
2023-01-09T07:40:34.355Z,0.49
2023-01-09T07:43:36.967Z,0.48
2023-01-09T07:46:38.831Z,0.49
2023-01-09T07:49:40.613Z,0.52
2023-01-09T07:52:44.192Z,0.60
2023-01-09T07:55:45.947Z,0.66
2023-01-09T07:58:47.567Z,0.70
2023-01-09T08:01:49.335Z,0.73
2023-01-09T08:04:50.988Z,0.76
2023-01-09T08:07:52.700Z,0.81
2023-01-09T08:10:54.304Z,0.83
2023-01-09T08:13:56.014Z,0.85
2023-01-09T08:16:57.653Z,0.89
2023-01-09T08:19:59.161Z,0.94
2023-01-09T08:23:00.783Z,1.01
2023-01-09T08:26:02.662Z,1.10
2023-01-09T08:29:04.490Z,1.18
2023-01-09T08:32:06.142Z,1.26
2023-01-09T08:35:08.506Z,1.34
2023-01-09T08:38:10.705Z,1.42
2023-01-09T08:41:12.570Z,1.48
2023-01-09T08:44:14.246Z,1.57
2023-01-09T08:47:19.113Z,1.64
2023-01-09T08:50:20.739Z,1.68
2023-01-09T08:53:22.266Z,1.78
2023-01-09T08:56:23.985Z,1.86
2023-01-09T08:59:25.577Z,1.95
2023-01-09T09:02:27.275Z,2.05
2023-01-09T09:05:30.340Z,2.17
2023-01-09T09:08:31.956Z,2.26
2023-01-09T09:11:34.351Z,2.33
2023-01-09T09:14:35.927Z,2.38
2023-01-09T09:17:37.555Z,2.44
2023-01-09T09:20:39.076Z,2.50
2023-01-09T09:23:40.740Z,2.52
2023-01-09T09:26:44.509Z,2.54
2023-01-09T09:29:46.394Z,2.47
2023-01-09T09:32:48.088Z,2.33
2023-01-09T09:35:49.813Z,2.22
2023-01-09T09:38:51.263Z,2.13
2023-01-09T09:42:16.888Z,2.07
2023-01-09T09:45:36.888Z,2.00
2023-01-09T09:48:46.859Z,1.91
2023-01-09T09:52:14.821Z,1.86
2023-01-09T09:55:36.387Z,1.89
2023-01-09T09:58:44.261Z,2.00
2023-01-09T10:01:51.223Z,2.10
2023-01-09T10:04:59.428Z,2.22
2023-01-09T10:08:15.482Z,2.33
2023-01-09T10:11:24.473Z,2.42
2023-01-09T10:14:26.692Z,2.52
2023-01-09T10:17:59.951Z,2.61
2023-01-09T10:21:20.092Z,2.70
2023-01-09T10:24:47.831Z,2.80
2023-01-09T10:28:08.680Z,2.92
2023-01-09T10:31:13.467Z,3.04
2023-01-09T10:34:40.889Z,3.12
2023-01-09T10:37:45.159Z,3.16
2023-01-09T10:41:01.960Z,3.27
2023-01-09T10:44:25.464Z,3.30
2023-01-09T10:47:33.921Z,3.26
2023-01-09T10:50:37.677Z,3.22
2023-01-09T10:53:42.967Z,3.22
2023-01-09T10:57:12.011Z,3.30
2023-01-09T11:00:21.691Z,3.41
2023-01-09T11:03:27.533Z,3.57
2023-01-09T11:06:40.530Z,3.72
2023-01-09T11:10:09.291Z,3.95
2023-01-09T11:13:19.335Z,4.17
2023-01-09T11:16:21.649Z,4.36
2023-01-09T11:19:24.565Z,4.53
2023-01-09T11:22:26.131Z,4.72
2023-01-09T11:25:28.212Z,4.92
2023-01-09T11:28:30.331Z,5.10
2023-01-09T11:31:32.295Z,5.28
2023-01-09T11:34:36.413Z,5.47
2023-01-09T11:37:38.092Z,5.63
2023-01-09T11:41:06.303Z,5.74
2023-01-09T11:44:13.301Z,5.83
2023-01-09T11:47:25.706Z,5.90
2023-01-09T11:50:29.645Z,5.99
2023-01-09T11:53:48.909Z,6.04
2023-01-09T11:56:50.913Z,6.08
2023-01-09T11:59:52.756Z,6.12
2023-01-09T12:03:16.743Z,6.16
2023-01-09T12:06:25.330Z,6.20
2023-01-09T12:09:41.994Z,6.21
2023-01-09T12:13:05.283Z,6.18
2023-01-09T12:16:10.478Z,6.13
2023-01-09T12:19:54.707Z,6.09
2023-01-09T12:23:14.787Z,6.05
2023-01-09T12:26:21.547Z,6.04
2023-01-09T12:29:46.147Z,6.04
2023-01-09T12:32:57.009Z,6.04
2023-01-09T12:36:10.343Z,6.07
2023-01-09T12:39:21.187Z,6.07
2023-01-09T12:42:51.024Z,6.04
2023-01-09T12:46:00.956Z,6.01
2023-01-09T12:49:21.674Z,6.00
2023-01-09T12:52:26.500Z,5.97
2023-01-09T12:55:34.153Z,5.95
2023-01-09T12:58:41.290Z,5.94
2023-01-09T13:01:45.652Z,5.93
2023-01-09T13:05:00.142Z,5.90
2023-01-09T13:08:08.623Z,5.88
2023-01-09T13:11:20.507Z,5.87
2023-01-09T13:14:32.668Z,5.85
2023-01-09T13:17:50.086Z,5.85
2023-01-09T13:20:55.751Z,5.83
2023-01-09T13:24:20.758Z,5.84
2023-01-09T13:27:23.624Z,5.85
2023-01-09T13:30:50.786Z,5.82
2023-01-09T13:33:57.929Z,5.79
2023-01-09T13:37:00.304Z,5.81
2023-01-09T13:40:05.120Z,5.83
2023-01-09T13:43:07.617Z,5.84
2023-01-09T13:46:09.248Z,5.82
2023-01-09T13:49:33.431Z,5.83
2023-01-09T13:52:41.554Z,5.84
2023-01-09T13:56:04.364Z,5.88
2023-01-09T13:59:26.297Z,5.91
2023-01-09T14:02:33.671Z,5.94
2023-01-09T14:05:36.250Z,5.96
2023-01-09T14:08:38.477Z,5.97
2023-01-09T14:11:40.330Z,5.97
2023-01-09T14:14:45.135Z,5.96
2023-01-09T14:17:46.854Z,5.94
2023-01-09T14:21:03.637Z,5.90
2023-01-09T14:24:07.246Z,5.87
2023-01-09T14:27:48.324Z,5.84
2023-01-09T14:30:53.058Z,5.81
2023-01-09T14:34:31.032Z,5.76
2023-01-09T14:37:35.415Z,5.74
2023-01-09T14:40:38.775Z,5.67
2023-01-09T14:43:52.226Z,5.64
2023-01-09T14:46:55.188Z,5.63
2023-01-09T14:50:11.588Z,5.60
2023-01-09T14:53:17.362Z,5.54
2023-01-09T14:56:30.831Z,5.50
2023-01-09T14:59:32.369Z,5.50
2023-01-09T15:02:37.278Z,5.47
2023-01-09T15:05:39.201Z,5.49
2023-01-09T15:08:44.548Z,5.49
2023-01-09T15:11:46.543Z,5.44
2023-01-09T15:14:52.557Z,5.39
2023-01-09T15:17:57.612Z,5.34
2023-01-09T15:21:02.049Z,5.31
2023-01-09T15:24:20.823Z,5.34
2023-01-09T15:27:22.528Z,5.39
2023-01-09T15:30:29.535Z,5.46
2023-01-09T15:33:32.267Z,5.56
2023-01-09T15:36:37.919Z,5.63
2023-01-09T15:39:39.655Z,5.64
2023-01-09T15:42:41.220Z,5.56
2023-01-09T15:45:44.560Z,5.53
2023-01-09T15:48:53.653Z,5.53
2023-01-09T15:51:56.045Z,5.48
2023-01-09T15:54:57.666Z,5.41
2023-01-09T15:57:59.308Z,5.37
2023-01-09T16:01:08.382Z,5.35
2023-01-09T16:04:13.759Z,5.31
2023-01-09T16:07:20.276Z,5.33
2023-01-09T16:10:34.512Z,5.32
2023-01-09T16:13:43.042Z,5.29
2023-01-09T16:16:46.221Z,5.24
2023-01-09T16:19:52.611Z,5.26
2023-01-09T16:22:55.630Z,5.29
2023-01-09T16:26:05.639Z,5.29
2023-01-09T16:29:27.239Z,5.30
2023-01-09T16:32:28.876Z,5.31
2023-01-09T16:35:30.441Z,5.24
2023-01-09T16:38:32.153Z,5.01
2023-01-09T16:41:33.837Z,4.82
2023-01-09T16:44:35.332Z,4.69
2023-01-09T16:47:36.950Z,4.61
2023-01-09T16:50:38.483Z,4.64
2023-01-09T16:53:40.203Z,4.78
2023-01-09T16:56:44.215Z,4.88
2023-01-09T16:59:46.462Z,4.93
2023-01-09T17:02:48.163Z,4.95
2023-01-09T17:05:50.538Z,4.99
2023-01-09T17:08:52.385Z,5.02
2023-01-09T17:11:54.056Z,5.10
2023-01-09T17:14:55.583Z,5.20
2023-01-09T17:17:57.212Z,5.25
2023-01-09T17:20:58.889Z,5.15
2023-01-09T17:24:00.383Z,4.91
2023-01-09T17:27:02.415Z,4.90
2023-01-09T17:30:17.594Z,5.01
2023-01-09T17:33:19.724Z,5.22
2023-01-09T17:36:28.950Z,5.34
2023-01-09T17:39:30.536Z,5.43
2023-01-09T17:42:32.103Z,5.51
2023-01-09T17:45:33.793Z,5.58
2023-01-09T17:48:35.258Z,5.62
2023-01-09T17:51:36.865Z,5.65
2023-01-09T17:54:38.508Z,5.67
2023-01-09T17:57:42.301Z,5.53
2023-01-09T18:00:43.978Z,5.56
2023-01-09T18:03:46.526Z,5.66
2023-01-09T18:06:48.345Z,5.67
2023-01-09T18:09:50.069Z,5.65
2023-01-09T18:12:52.256Z,5.64
2023-01-09T18:15:53.827Z,5.58
2023-01-09T18:18:57.662Z,5.52
2023-01-09T18:22:00.139Z,5.45
2023-01-09T18:25:01.795Z,5.39
2023-01-09T18:28:03.347Z,5.43
2023-01-09T18:31:06.146Z,5.40
2023-01-09T18:34:09.249Z,5.47
2023-01-09T18:37:10.963Z,5.55
2023-01-09T18:40:12.998Z,5.58
2023-01-09T18:43:14.553Z,5.57
2023-01-09T18:46:16.168Z,5.59
2023-01-09T18:49:17.723Z,5.62
2023-01-09T18:52:19.250Z,5.65
2023-01-09T18:55:20.950Z,5.66
2023-01-09T18:58:22.642Z,5.68
2023-01-09T19:01:28.910Z,5.69
2023-01-09T19:04:30.615Z,5.70
2023-01-09T19:07:32.161Z,5.67
2023-01-09T19:10:33.706Z,5.57
2023-01-09T19:13:35.951Z,5.37
2023-01-09T19:16:37.911Z,5.34
2023-01-09T19:19:39.595Z,5.30
2023-01-09T19:22:41.035Z,5.28
2023-01-09T19:25:42.898Z,5.27
2023-01-09T19:28:44.541Z,5.25
2023-01-09T19:31:46.299Z,5.22
2023-01-09T19:34:47.993Z,5.20
2023-01-09T19:37:49.712Z,5.19
2023-01-09T19:40:51.166Z,5.17
2023-01-09T19:43:52.804Z,5.14
2023-01-09T19:46:54.353Z,5.17
2023-01-09T19:49:56.017Z,5.12
2023-01-09T19:52:57.599Z,5.09
2023-01-09T19:56:16.901Z,5.15
2023-01-09T19:59:18.658Z,5.26
2023-01-09T20:05:22.805Z,5.34
2023-01-09T20:08:24.358Z,5.34
2023-01-09T20:11:28.818Z,5.31
2023-01-09T20:14:30.433Z,5.29
2023-01-09T20:17:32.629Z,5.28
2023-01-09T20:20:34.337Z,5.21
2023-01-09T20:23:35.953Z,5.10
2023-01-09T20:26:38.292Z,5.10
2023-01-09T20:29:39.943Z,5.04
2023-01-09T20:32:41.588Z,5.01
2023-01-09T20:35:43.251Z,5.00
2023-01-09T20:38:44.792Z,4.94
2023-01-09T20:41:46.356Z,4.92
2023-01-09T20:44:47.982Z,4.87
2023-01-09T20:47:49.515Z,4.82
2023-01-09T20:50:51.073Z,4.83
2023-01-09T20:53:52.541Z,4.77
2023-01-09T20:56:54.230Z,4.68
2023-01-09T20:59:55.771Z,4.65
2023-01-09T21:02:58.612Z,4.58
2023-01-09T21:06:04.619Z,4.54
2023-01-09T21:09:06.530Z,4.58
2023-01-09T21:12:08.190Z,4.58
2023-01-09T21:15:09.908Z,4.60
2023-01-09T21:18:11.599Z,4.65
2023-01-09T21:21:14.549Z,4.63
2023-01-09T21:24:16.209Z,4.61
2023-01-09T21:27:18.160Z,4.65
2023-01-09T21:30:19.800Z,4.65
2023-01-09T21:33:21.405Z,4.64
2023-01-09T21:36:22.940Z,4.74
2023-01-09T21:39:24.963Z,4.80
2023-01-09T21:42:26.670Z,4.80
2023-01-09T21:45:28.149Z,4.82
2023-01-09T21:48:29.734Z,4.87
2023-01-09T21:51:31.792Z,4.87
2023-01-09T21:54:33.820Z,4.88
2023-01-09T21:57:35.396Z,4.89
2023-01-09T22:00:36.976Z,4.91
2023-01-09T22:03:38.506Z,4.91
2023-01-09T22:06:40.087Z,4.90
2023-01-09T22:09:41.772Z,4.88
2023-01-09T22:12:43.369Z,4.86
2023-01-09T22:15:44.954Z,4.87
2023-01-09T22:18:46.571Z,4.88
2023-01-09T22:21:48.288Z,4.89
2023-01-09T22:24:49.929Z,4.90
2023-01-09T22:27:51.411Z,4.89
2023-01-09T22:30:53.088Z,4.90
2023-01-09T22:33:55.628Z,4.90
2023-01-09T22:36:57.333Z,4.90
2023-01-09T22:39:59.036Z,4.90
2023-01-09T22:43:00.629Z,4.89
2023-01-09T22:46:04.785Z,4.87
2023-01-09T22:49:06.548Z,4.84
2023-01-09T22:52:08.149Z,4.83
2023-01-09T22:55:09.802Z,4.81
2023-01-09T22:58:11.315Z,4.80
2023-01-09T23:01:13.277Z,4.78
2023-01-09T23:04:14.863Z,4.77
2023-01-09T23:07:16.760Z,4.75
2023-01-09T23:10:18.652Z,4.74
2023-01-09T23:13:20.409Z,4.73
2023-01-09T23:16:21.968Z,4.72
2023-01-09T23:19:26.714Z,4.71
2023-01-09T23:22:28.432Z,4.72
2023-01-09T23:25:30.194Z,4.71
2023-01-09T23:28:31.831Z,4.69
2023-01-09T23:31:33.529Z,4.67
2023-01-09T23:34:35.222Z,4.65
2023-01-09T23:37:36.859Z,4.63
2023-01-09T23:40:38.758Z,4.62
2023-01-09T23:43:43.539Z,4.60
2023-01-09T23:46:45.179Z,4.59
2023-01-09T23:49:46.743Z,4.58
2023-01-09T23:52:48.333Z,4.58
2023-01-09T23:55:52.567Z,4.60
2023-01-09T23:58:54.267Z,4.62
